sensor_id;sensor_type;location;lat;lon;timestamp;noise_LAeq;noise_LA_min;noise_LA_max;noise_LA01;noise_LA95
52872;Laerm;40124;52.198;9.902;2023-06-04T00:01:25;56.81;39.21;76.01;;
52872;Laerm;40124;52.198;9.902;2023-06-04T00:03:50;62.12;40.53;78.65;;
52872;Laerm;40124;52.198;9.902;2023-06-04T00:06:16;64.05;39.70;79.17;;
52872;Laerm;40124;52.198;9.902;2023-06-04T00:08:41;59.12;39.08;78.24;;
52872;Laerm;40124;52.198;9.902;2023-06-04T00:11:07;58.79;39.70;78.71;;
52872;Laerm;40124;52.198;9.902;2023-06-04T00:13:32;60.48;40.43;79.54;;
52872;Laerm;40124;52.198;9.902;2023-06-04T00:15:57;54.36;39.08;74.61;;
52872;Laerm;40124;52.198;9.902;2023-06-04T00:18:22;42.85;38.95;52.10;;
52872;Laerm;40124;52.198;9.902;2023-06-04T00:20:47;60.12;38.87;79.99;;
52872;Laerm;40124;52.198;9.902;2023-06-04T00:23:12;41.98;38.52;45.89;;
52872;Laerm;40124;52.198;9.902;2023-06-04T00:25:37;55.68;38.21;74.55;;
52872;Laerm;40124;52.198;9.902;2023-06-04T00:28:03;56.70;38.67;76.16;;
52872;Laerm;40124;52.198;9.902;2023-06-04T00:30:28;62.41;40.89;79.27;;
52872;Laerm;40124;52.198;9.902;2023-06-04T00:32:53;57.22;38.37;76.81;;
52872;Laerm;40124;52.198;9.902;2023-06-04T00:35:18;56.68;39.58;75.80;;
52872;Laerm;40124;52.198;9.902;2023-06-04T00:37:44;41.90;38.67;45.89;;
52872;Laerm;40124;52.198;9.902;2023-06-04T00:40:09;41.09;38.21;46.07;;
52872;Laerm;40124;52.198;9.902;2023-06-04T00:42:35;42.07;38.95;46.78;;
52872;Laerm;40124;52.198;9.902;2023-06-04T00:45:00;60.30;38.67;78.12;;
52872;Laerm;40124;52.198;9.902;2023-06-04T00:47:26;59.75;38.95;78.94;;
52872;Laerm;40124;52.198;9.902;2023-06-04T00:49:53;42.49;38.67;50.37;;
52872;Laerm;40124;52.198;9.902;2023-06-04T00:52:18;59.89;38.37;77.67;;
52872;Laerm;40124;52.198;9.902;2023-06-04T00:54:43;65.32;39.21;85.22;;
52872;Laerm;40124;52.198;9.902;2023-06-04T00:57:09;42.67;38.52;55.36;;
52872;Laerm;40124;52.198;9.902;2023-06-04T00:59:35;60.13;39.34;77.89;;
52872;Laerm;40124;52.198;9.902;2023-06-04T01:02:03;42.54;37.88;63.80;;
52872;Laerm;40124;52.198;9.902;2023-06-04T01:04:46;62.51;39.58;82.26;;
52872;Laerm;40124;52.198;9.902;2023-06-04T01:07:15;64.94;40.62;82.00;;
52872;Laerm;40124;52.198;9.902;2023-06-04T01:09:40;42.11;38.21;51.34;;
52872;Laerm;40124;52.198;9.902;2023-06-04T01:12:06;59.72;38.95;77.01;;
52872;Laerm;40124;52.198;9.902;2023-06-04T01:14:32;63.05;39.46;81.45;;
52872;Laerm;40124;52.198;9.902;2023-06-04T01:16:59;43.65;39.21;53.45;;
52872;Laerm;40124;52.198;9.902;2023-06-04T01:19:37;61.61;40.03;79.98;;
52872;Laerm;40124;52.198;9.902;2023-06-04T01:24:58;41.21;37.32;51.33;;
52872;Laerm;40124;52.198;9.902;2023-06-04T01:27:26;40.75;36.91;44.76;;
52872;Laerm;40124;52.198;9.902;2023-06-04T01:29:51;57.09;39.70;77.51;;
52872;Laerm;40124;52.198;9.902;2023-06-04T01:32:17;59.12;38.37;78.82;;
52872;Laerm;40124;52.198;9.902;2023-06-04T01:34:43;41.30;38.37;55.31;;
52872;Laerm;40124;52.198;9.902;2023-06-04T01:37:09;58.79;38.52;78.68;;
52872;Laerm;40124;52.198;9.902;2023-06-04T01:39:36;42.92;38.05;56.05;;
52872;Laerm;40124;52.198;9.902;2023-06-04T01:42:01;55.14;38.52;74.89;;
52872;Laerm;40124;52.198;9.902;2023-06-04T01:44:26;59.87;38.67;81.31;;
52872;Laerm;40124;52.198;9.902;2023-06-04T01:46:51;41.94;38.21;45.04;;
52872;Laerm;40124;52.198;9.902;2023-06-04T01:49:16;42.94;37.32;58.95;;
52872;Laerm;40124;52.198;9.902;2023-06-04T01:51:42;57.95;38.21;77.70;;
52872;Laerm;40124;52.198;9.902;2023-06-04T01:54:07;57.81;38.21;77.13;;
52872;Laerm;40124;52.198;9.902;2023-06-04T01:56:32;45.42;37.87;60.17;;
52872;Laerm;40124;52.198;9.902;2023-06-04T01:58:57;56.68;38.67;74.87;;
52872;Laerm;40124;52.198;9.902;2023-06-04T02:01:22;57.02;39.21;76.67;;
52872;Laerm;40124;52.198;9.902;2023-06-04T02:03:47;49.32;39.34;63.07;;
52872;Laerm;40124;52.198;9.902;2023-06-04T02:06:12;60.80;40.03;78.88;;
52872;Laerm;40124;52.198;9.902;2023-06-04T02:08:38;57.88;40.03;76.79;;
52872;Laerm;40124;52.198;9.902;2023-06-04T02:11:05;62.30;39.58;83.74;;
52872;Laerm;40124;52.198;9.902;2023-06-04T02:13:30;61.89;40.43;80.01;;
52872;Laerm;40124;52.198;9.902;2023-06-04T02:15:55;48.28;40.03;69.10;;
52872;Laerm;40124;52.198;9.902;2023-06-04T02:18:20;56.80;40.89;77.19;;
52872;Laerm;40124;52.198;9.902;2023-06-04T02:20:47;58.20;39.92;77.80;;
52872;Laerm;40124;52.198;9.902;2023-06-04T02:23:13;56.54;39.46;75.65;;
52872;Laerm;40124;52.198;9.902;2023-06-04T02:25:39;45.69;39.81;63.85;;
52872;Laerm;40124;52.198;9.902;2023-06-04T02:28:04;62.19;39.70;78.63;;
52872;Laerm;40124;52.198;9.902;2023-06-04T02:30:30;52.40;40.13;70.25;;
52872;Laerm;40124;52.198;9.902;2023-06-04T02:32:55;62.30;38.95;83.41;;
52872;Laerm;40124;52.198;9.902;2023-06-04T02:35:21;53.47;38.67;71.70;;
52872;Laerm;40124;52.198;9.902;2023-06-04T02:37:48;64.44;39.21;86.06;;
52872;Laerm;40124;52.198;9.902;2023-06-04T02:40:13;42.72;39.34;57.27;;
52872;Laerm;40124;52.198;9.902;2023-06-04T02:42:38;56.19;39.81;75.85;;
52872;Laerm;40124;52.198;9.902;2023-06-04T02:45:03;43.32;39.08;53.07;;
52872;Laerm;40124;52.198;9.902;2023-06-04T02:47:28;60.81;38.67;80.36;;
52872;Laerm;40124;52.198;9.902;2023-06-04T02:49:54;49.45;39.08;60.97;;
52872;Laerm;40124;52.198;9.902;2023-06-04T02:52:19;50.69;38.95;64.66;;
52872;Laerm;40124;52.198;9.902;2023-06-04T02:54:47;50.47;38.21;66.46;;
52872;Laerm;40124;52.198;9.902;2023-06-04T02:57:12;62.62;39.70;84.93;;
52872;Laerm;40124;52.198;9.902;2023-06-04T02:59:37;44.05;38.52;52.75;;
52872;Laerm;40124;52.198;9.902;2023-06-04T03:02:03;47.74;38.67;65.14;;
52872;Laerm;40124;52.198;9.902;2023-06-04T03:04:28;44.06;41.96;50.61;;
52872;Laerm;40124;52.198;9.902;2023-06-04T03:06:58;44.10;42.03;51.44;;
52872;Laerm;40124;52.198;9.902;2023-06-04T03:09:24;49.22;41.96;66.05;;
52872;Laerm;40124;52.198;9.902;2023-06-04T03:11:49;44.47;41.96;58.89;;
52872;Laerm;40124;52.198;9.902;2023-06-04T03:14:14;45.05;42.22;59.64;;
52872;Laerm;40124;52.198;9.902;2023-06-04T03:16:39;59.34;42.41;77.12;;
52872;Laerm;40124;52.198;9.902;2023-06-04T03:19:04;58.26;40.03;77.79;;
52872;Laerm;40124;52.198;9.902;2023-06-04T03:21:29;56.58;40.33;76.26;;
52872;Laerm;40124;52.198;9.902;2023-06-04T03:23:55;47.39;39.08;66.75;;
52872;Laerm;40124;52.198;9.902;2023-06-04T03:26:21;63.14;38.95;80.15;;
52872;Laerm;40124;52.198;9.902;2023-06-04T03:28:46;62.98;39.08;80.70;;
52872;Laerm;40124;52.198;9.902;2023-06-04T03:31:11;42.75;38.37;54.41;;
52872;Laerm;40124;52.198;9.902;2023-06-04T03:33:37;62.61;40.13;80.71;;
52872;Laerm;40124;52.198;9.902;2023-06-04T03:36:02;63.12;39.81;81.73;;
52872;Laerm;40124;52.198;9.902;2023-06-04T03:38:27;43.88;39.58;54.91;;
52872;Laerm;40124;52.198;9.902;2023-06-04T03:40:52;68.71;40.33;85.89;;
52872;Laerm;40124;52.198;9.902;2023-06-04T03:43:21;59.60;40.43;77.14;;
52872;Laerm;40124;52.198;9.902;2023-06-04T03:45:46;56.97;40.62;76.65;;
52872;Laerm;40124;52.198;9.902;2023-06-04T03:48:11;56.67;41.41;74.30;;
52872;Laerm;40124;52.198;9.902;2023-06-04T03:50:36;65.14;41.22;81.69;;
52872;Laerm;40124;52.198;9.902;2023-06-04T03:53:02;57.80;40.89;78.76;;
52872;Laerm;40124;52.198;9.902;2023-06-04T03:55:29;61.29;41.38;80.56;;
52872;Laerm;40124;52.198;9.902;2023-06-04T03:57:56;62.24;41.68;81.37;;
52872;Laerm;40124;52.198;9.902;2023-06-04T04:00:22;60.35;42.47;79.57;;
52872;Laerm;40124;52.198;9.902;2023-06-04T04:02:47;63.46;42.06;80.77;;
52872;Laerm;40124;52.198;9.902;2023-06-04T04:05:12;61.27;41.89;79.89;;
52872;Laerm;40124;52.198;9.902;2023-06-04T04:07:38;62.15;40.33;80.46;;
52872;Laerm;40124;52.198;9.902;2023-06-04T04:10:03;64.59;40.71;80.20;;
52872;Laerm;40124;52.198;9.902;2023-06-04T04:12:30;62.59;40.62;80.85;;
52872;Laerm;40124;52.198;9.902;2023-06-04T04:14:56;62.63;40.53;79.90;;
52872;Laerm;40124;52.198;9.902;2023-06-04T04:17:21;55.67;40.13;76.00;;
52872;Laerm;40124;52.198;9.902;2023-06-04T04:19:46;55.96;40.98;75.46;;
52872;Laerm;40124;52.198;9.902;2023-06-04T04:22:11;62.97;41.61;80.95;;
52872;Laerm;40124;52.198;9.902;2023-06-04T04:24:37;58.72;40.53;80.67;;
52872;Laerm;40124;52.198;9.902;2023-06-04T04:27:02;44.34;40.43;64.39;;
52872;Laerm;40124;52.198;9.902;2023-06-04T04:29:28;59.41;40.98;77.49;;
52872;Laerm;40124;52.198;9.902;2023-06-04T04:31:57;57.32;41.06;77.68;;
52872;Laerm;40124;52.198;9.902;2023-06-04T04:34:26;56.73;40.13;76.88;;
52872;Laerm;40124;52.198;9.902;2023-06-04T04:36:51;63.38;41.14;79.13;;
52872;Laerm;40124;52.198;9.902;2023-06-04T04:39:24;64.89;39.92;84.59;;
52872;Laerm;40124;52.198;9.902;2023-06-04T04:41:50;58.86;38.81;80.03;;
52872;Laerm;40124;52.198;9.902;2023-06-04T04:44:16;57.43;39.81;78.37;;
52872;Laerm;40124;52.198;9.902;2023-06-04T04:46:41;58.69;39.58;79.59;;
52872;Laerm;40124;52.198;9.902;2023-06-04T04:49:06;58.91;39.81;78.51;;
52872;Laerm;40124;52.198;9.902;2023-06-04T04:51:31;71.13;38.95;90.31;;
52872;Laerm;40124;52.198;9.902;2023-06-04T04:53:57;60.95;39.34;80.68;;
52872;Laerm;40124;52.198;9.902;2023-06-04T04:56:22;62.17;40.71;80.25;;
52872;Laerm;40124;52.198;9.902;2023-06-04T04:58:48;59.60;40.98;77.87;;
52872;Laerm;40124;52.198;9.902;2023-06-04T05:01:13;63.32;41.68;77.80;;
52872;Laerm;40124;52.198;9.902;2023-06-04T05:03:39;63.33;41.38;80.86;;
52872;Laerm;40124;52.198;9.902;2023-06-04T05:06:04;62.75;40.98;79.30;;
52872;Laerm;40124;52.198;9.902;2023-06-04T05:08:29;57.67;39.81;77.43;;
52872;Laerm;40124;52.198;9.902;2023-06-04T05:10:54;61.85;39.70;81.59;;
52872;Laerm;40124;52.198;9.902;2023-06-04T05:13:19;64.42;40.98;82.24;;
52872;Laerm;40124;52.198;9.902;2023-06-04T05:15:45;63.99;41.30;81.49;;
52872;Laerm;40124;52.198;9.902;2023-06-04T05:18:12;60.49;40.89;78.18;;
52872;Laerm;40124;52.198;9.902;2023-06-04T05:20:38;63.58;40.80;79.65;;
52872;Laerm;40124;52.198;9.902;2023-06-04T05:23:03;62.08;40.71;80.95;;
52872;Laerm;40124;52.198;9.902;2023-06-04T05:25:29;65.77;40.13;81.34;;
52872;Laerm;40124;52.198;9.902;2023-06-04T05:27:55;58.10;40.80;77.07;;
52872;Laerm;40124;52.198;9.902;2023-06-04T05:30:20;64.65;41.38;79.57;;
52872;Laerm;40124;52.198;9.902;2023-06-04T05:32:46;43.57;41.46;53.98;;
52872;Laerm;40124;52.198;9.902;2023-06-04T05:35:11;57.11;41.61;78.24;;
52872;Laerm;40124;52.198;9.902;2023-06-04T05:37:37;59.64;41.53;78.38;;
52872;Laerm;40124;52.198;9.902;2023-06-04T05:40:02;67.06;40.71;82.56;;
52872;Laerm;40124;52.198;9.902;2023-06-04T05:42:28;66.20;41.89;82.30;;
52872;Laerm;40124;52.198;9.902;2023-06-04T05:44:53;61.08;41.68;80.42;;
52872;Laerm;40124;52.198;9.902;2023-06-04T05:47:18;61.35;42.22;78.12;;
52872;Laerm;40124;52.198;9.902;2023-06-04T05:49:43;62.67;42.41;78.34;;
52872;Laerm;40124;52.198;9.902;2023-06-04T05:52:08;66.20;43.09;81.35;;
52872;Laerm;40124;52.198;9.902;2023-06-04T05:54:33;61.11;42.29;77.50;;
52872;Laerm;40124;52.198;9.902;2023-06-04T05:56:59;58.89;42.41;74.63;;
52872;Laerm;40124;52.198;9.902;2023-06-04T05:59:24;65.12;41.89;82.92;;
52872;Laerm;40124;52.198;9.902;2023-06-04T06:01:49;63.58;42.16;79.48;;
52872;Laerm;40124;52.198;9.902;2023-06-04T06:04:14;61.52;42.59;77.44;;
52872;Laerm;40124;52.198;9.902;2023-06-04T06:06:40;65.12;41.61;80.73;;
52872;Laerm;40124;52.198;9.902;2023-06-04T06:09:08;64.02;41.61;80.02;;
52872;Laerm;40124;52.198;9.902;2023-06-04T06:11:34;64.70;41.53;79.16;;
52872;Laerm;40124;52.198;9.902;2023-06-04T06:13:59;67.91;43.54;84.67;;
52872;Laerm;40124;52.198;9.902;2023-06-04T06:16:24;64.56;42.82;79.09;;
52872;Laerm;40124;52.198;9.902;2023-06-04T06:18:49;65.05;42.35;79.24;;
52872;Laerm;40124;52.198;9.902;2023-06-04T06:21:14;64.28;41.68;82.89;;
52872;Laerm;40124;52.198;9.902;2023-06-04T06:23:40;69.52;41.96;86.57;;
52872;Laerm;40124;52.198;9.902;2023-06-04T06:26:05;64.19;41.30;78.63;;
52872;Laerm;40124;52.198;9.902;2023-06-04T06:28:33;66.81;42.53;80.53;;
52872;Laerm;40124;52.198;9.902;2023-06-04T06:30:58;60.06;42.16;77.22;;
52872;Laerm;40124;52.198;9.902;2023-06-04T06:33:23;62.66;42.71;79.09;;
52872;Laerm;40124;52.198;9.902;2023-06-04T06:35:49;68.34;45.86;80.95;;
52872;Laerm;40124;52.198;9.902;2023-06-04T06:38:14;64.83;43.34;81.04;;
52872;Laerm;40124;52.198;9.902;2023-06-04T06:40:40;64.59;43.09;80.94;;
52872;Laerm;40124;52.198;9.902;2023-06-04T06:43:05;66.71;42.53;80.91;;
52872;Laerm;40124;52.198;9.902;2023-06-04T06:45:30;64.90;41.82;81.86;;
52872;Laerm;40124;52.198;9.902;2023-06-04T06:47:55;65.00;41.82;80.64;;
52872;Laerm;40124;52.198;9.902;2023-06-04T06:50:21;68.21;42.59;79.93;;
52872;Laerm;40124;52.198;9.902;2023-06-04T06:52:46;71.46;43.77;88.29;;
52872;Laerm;40124;52.198;9.902;2023-06-04T06:55:11;62.14;41.61;81.21;;
52872;Laerm;40124;52.198;9.902;2023-06-04T06:57:36;66.32;41.14;80.96;;
52872;Laerm;40124;52.198;9.902;2023-06-04T07:00:01;66.51;42.88;80.79;;
52872;Laerm;40124;52.198;9.902;2023-06-04T07:02:27;67.85;42.29;80.50;;
52872;Laerm;40124;52.198;9.902;2023-06-04T07:04:53;66.42;43.29;80.30;;
52872;Laerm;40124;52.198;9.902;2023-06-04T07:07:18;67.16;46.66;80.58;;
52872;Laerm;40124;52.198;9.902;2023-06-04T07:09:44;65.67;42.53;79.43;;
52872;Laerm;40124;52.198;9.902;2023-06-04T07:12:09;65.80;41.75;81.04;;
52872;Laerm;40124;52.198;9.902;2023-06-04T07:14:34;68.18;45.63;80.62;;
52872;Laerm;40124;52.198;9.902;2023-06-04T07:17:00;69.20;42.76;81.98;;
52872;Laerm;40124;52.198;9.902;2023-06-04T07:19:25;67.97;43.29;82.26;;
52872;Laerm;40124;52.198;9.902;2023-06-04T07:21:50;66.30;40.33;82.40;;
52872;Laerm;40124;52.198;9.902;2023-06-04T07:24:15;68.72;43.04;81.73;;
52872;Laerm;40124;52.198;9.902;2023-06-04T07:26:40;66.29;42.53;80.34;;
52872;Laerm;40124;52.198;9.902;2023-06-04T07:29:06;68.49;41.96;84.55;;
52872;Laerm;40124;52.198;9.902;2023-06-04T07:31:31;67.31;40.03;79.90;;
52872;Laerm;40124;52.198;9.902;2023-06-04T07:33:56;65.12;41.75;77.77;;
52872;Laerm;40124;52.198;9.902;2023-06-04T07:36:21;65.32;41.38;82.35;;
52872;Laerm;40124;52.198;9.902;2023-06-04T07:38:47;65.97;42.74;79.22;;
52872;Laerm;40124;52.198;9.902;2023-06-04T07:41:12;69.24;41.89;81.02;;
52872;Laerm;40124;52.198;9.902;2023-06-04T07:43:37;68.24;42.93;81.61;;
52872;Laerm;40124;52.198;9.902;2023-06-04T07:46:03;69.94;40.80;81.78;;
52872;Laerm;40124;52.198;9.902;2023-06-04T07:48:28;68.48;43.90;81.68;;
52872;Laerm;40124;52.198;9.902;2023-06-04T07:51:00;69.75;43.39;85.37;;
52872;Laerm;40124;52.198;9.902;2023-06-04T07:53:26;67.86;44.54;79.42;;
52872;Laerm;40124;52.198;9.902;2023-06-04T07:55:52;67.94;44.15;81.49;;
52872;Laerm;40124;52.198;9.902;2023-06-04T07:58:17;64.87;40.53;80.47;;
52872;Laerm;40124;52.198;9.902;2023-06-04T08:00:42;67.28;41.14;79.49;;
52872;Laerm;40124;52.198;9.902;2023-06-04T08:03:07;68.46;43.00;83.40;;
52872;Laerm;40124;52.198;9.902;2023-06-04T08:05:33;64.19;38.81;79.18;;
52872;Laerm;40124;52.198;9.902;2023-06-04T08:07:59;67.07;40.43;80.89;;
52872;Laerm;40124;52.198;9.902;2023-06-04T08:10:24;67.12;42.58;81.52;;
52872;Laerm;40124;52.198;9.902;2023-06-04T08:12:49;66.19;42.16;79.90;;
52872;Laerm;40124;52.198;9.902;2023-06-04T08:15:14;68.55;41.22;83.67;;
52872;Laerm;40124;52.198;9.902;2023-06-04T08:17:39;66.75;42.35;79.34;;
52872;Laerm;40124;52.198;9.902;2023-06-04T08:20:05;66.75;42.65;80.82;;
52872;Laerm;40124;52.198;9.902;2023-06-04T08:22:31;66.74;39.81;81.00;;
52872;Laerm;40124;52.198;9.902;2023-06-04T08:24:56;68.87;39.21;81.38;;
52872;Laerm;40124;52.198;9.902;2023-06-04T08:27:21;66.77;41.11;80.20;;
52872;Laerm;40124;52.198;9.902;2023-06-04T08:29:47;65.94;42.30;77.85;;
52872;Laerm;40124;52.198;9.902;2023-06-04T08:32:12;69.91;42.53;82.41;;
52872;Laerm;40124;52.198;9.902;2023-06-04T08:34:38;67.37;43.34;82.33;;
52872;Laerm;40124;52.198;9.902;2023-06-04T08:37:03;66.58;39.70;80.33;;
52872;Laerm;40124;52.198;9.902;2023-06-04T08:39:28;67.32;42.16;80.27;;
52872;Laerm;40124;52.198;9.902;2023-06-04T08:41:59;68.63;42.03;81.63;;
52872;Laerm;40124;52.198;9.902;2023-06-04T08:44:26;67.58;42.03;78.87;;
52872;Laerm;40124;52.198;9.902;2023-06-04T08:46:52;69.37;46.33;83.54;;
52872;Laerm;40124;52.198;9.902;2023-06-04T08:49:18;71.16;43.94;84.87;;
52872;Laerm;40124;52.198;9.902;2023-06-04T08:51:45;67.53;46.38;79.17;;
52872;Laerm;40124;52.198;9.902;2023-06-04T08:54:11;68.16;43.94;81.43;;
52872;Laerm;40124;52.198;9.902;2023-06-04T08:56:36;68.22;41.89;89.20;;
52872;Laerm;40124;52.198;9.902;2023-06-04T08:59:02;66.74;42.93;84.22;;
52872;Laerm;40124;52.198;9.902;2023-06-04T09:01:27;70.41;42.53;91.28;;
52872;Laerm;40124;52.198;9.902;2023-06-04T09:03:53;65.66;42.29;78.21;;
52872;Laerm;40124;52.198;9.902;2023-06-04T09:06:18;66.14;41.46;80.75;;
52872;Laerm;40124;52.198;9.902;2023-06-04T09:08:43;68.11;50.82;80.29;;
52872;Laerm;40124;52.198;9.902;2023-06-04T09:11:10;68.45;42.93;84.91;;
52872;Laerm;40124;52.198;9.902;2023-06-04T09:13:36;66.75;41.14;81.81;;
52872;Laerm;40124;52.198;9.902;2023-06-04T09:16:01;67.58;42.09;88.68;;
52872;Laerm;40124;52.198;9.902;2023-06-04T09:18:27;68.39;44.58;85.14;;
52872;Laerm;40124;52.198;9.902;2023-06-04T09:21:02;67.44;44.11;79.37;;
52872;Laerm;40124;52.198;9.902;2023-06-04T09:23:27;68.55;43.44;83.08;;
52872;Laerm;40124;52.198;9.902;2023-06-04T09:25:53;67.13;40.33;80.17;;
52872;Laerm;40124;52.198;9.902;2023-06-04T09:28:18;69.13;44.47;80.36;;
52872;Laerm;40124;52.198;9.902;2023-06-04T09:30:52;70.14;43.58;84.14;;
52872;Laerm;40124;52.198;9.902;2023-06-04T09:33:17;67.79;42.47;83.62;;
52872;Laerm;40124;52.198;9.902;2023-06-04T09:35:42;68.80;45.14;79.95;;
52872;Laerm;40124;52.198;9.902;2023-06-04T09:38:17;68.17;45.54;78.51;;
52872;Laerm;40124;52.198;9.902;2023-06-04T09:40:42;68.24;42.53;79.52;;
52872;Laerm;40124;52.198;9.902;2023-06-04T09:43:08;67.69;42.93;80.35;;
52872;Laerm;40124;52.198;9.902;2023-06-04T09:45:35;67.87;43.68;83.78;;
52872;Laerm;40124;52.198;9.902;2023-06-04T09:48:01;65.53;41.68;81.88;;
52872;Laerm;40124;52.198;9.902;2023-06-04T09:50:27;68.57;42.88;82.14;;
52872;Laerm;40124;52.198;9.902;2023-06-04T09:52:52;67.29;42.06;80.50;;
52872;Laerm;40124;52.198;9.902;2023-06-04T09:55:18;66.16;41.61;79.92;;
52872;Laerm;40124;52.198;9.902;2023-06-04T09:57:47;68.06;41.68;80.79;;
52872;Laerm;40124;52.198;9.902;2023-06-04T10:00:16;69.30;44.97;81.61;;
52872;Laerm;40124;52.198;9.902;2023-06-04T10:02:41;67.49;46.43;81.90;;
52872;Laerm;40124;52.198;9.902;2023-06-04T10:05:08;64.83;39.08;78.70;;
52872;Laerm;40124;52.198;9.902;2023-06-04T10:07:37;69.53;38.81;85.88;;
52872;Laerm;40124;52.198;9.902;2023-06-04T10:10:03;67.79;42.71;82.80;;
52872;Laerm;40124;52.198;9.902;2023-06-04T10:12:29;67.77;40.43;84.95;;
52872;Laerm;40124;52.198;9.902;2023-06-04T10:15:00;65.57;39.68;80.90;;
52872;Laerm;40124;52.198;9.902;2023-06-04T10:17:26;66.73;41.82;80.02;;
52872;Laerm;40124;52.198;9.902;2023-06-04T10:19:53;69.47;46.20;81.35;;
52872;Laerm;40124;52.198;9.902;2023-06-04T10:22:19;69.57;41.82;84.04;;
52872;Laerm;40124;52.198;9.902;2023-06-04T10:24:45;63.89;40.62;78.34;;
52872;Laerm;40124;52.198;9.902;2023-06-04T10:27:11;66.60;40.03;78.55;;
52872;Laerm;40124;52.198;9.902;2023-06-04T10:29:37;67.40;41.46;80.90;;
52872;Laerm;40124;52.198;9.902;2023-06-04T10:32:03;67.23;41.89;78.03;;
52872;Laerm;40124;52.198;9.902;2023-06-04T10:34:28;67.29;43.90;80.13;;
52872;Laerm;40124;52.198;9.902;2023-06-04T10:36:54;68.27;45.91;79.78;;
52872;Laerm;40124;52.198;9.902;2023-06-04T10:39:26;68.41;43.14;79.16;;
52872;Laerm;40124;52.198;9.902;2023-06-04T10:41:59;67.75;41.06;78.50;;
52872;Laerm;40124;52.198;9.902;2023-06-04T10:44:25;68.05;45.30;80.57;;
52872;Laerm;40124;52.198;9.902;2023-06-04T10:46:50;65.26;42.09;78.72;;
52872;Laerm;40124;52.198;9.902;2023-06-04T10:49:25;70.37;45.45;81.75;;
52872;Laerm;40124;52.198;9.902;2023-06-04T10:51:50;68.37;41.46;85.03;;
52872;Laerm;40124;52.198;9.902;2023-06-04T10:54:22;68.89;44.43;81.14;;
52872;Laerm;40124;52.198;9.902;2023-06-04T10:56:47;68.97;40.63;82.83;;
52872;Laerm;40124;52.198;9.902;2023-06-04T10:59:13;69.21;41.61;81.38;;
52872;Laerm;40124;52.198;9.902;2023-06-04T11:01:38;65.59;41.53;79.27;;
52872;Laerm;40124;52.198;9.902;2023-06-04T11:04:03;67.30;44.69;79.12;;
52872;Laerm;40124;52.198;9.902;2023-06-04T11:06:28;67.49;44.65;79.87;;
52872;Laerm;40124;52.198;9.902;2023-06-04T11:09:03;66.90;44.03;79.40;;
52872;Laerm;40124;52.198;9.902;2023-06-04T11:11:30;68.06;43.29;79.48;;
52872;Laerm;40124;52.198;9.902;2023-06-04T11:13:55;70.10;43.14;82.72;;
52872;Laerm;40124;52.198;9.902;2023-06-04T11:16:20;65.45;43.34;79.70;;
52872;Laerm;40124;52.198;9.902;2023-06-04T11:18:56;65.83;42.09;79.07;;
52872;Laerm;40124;52.198;9.902;2023-06-04T11:21:21;68.19;44.94;78.71;;
52872;Laerm;40124;52.198;9.902;2023-06-04T11:23:47;68.37;43.19;78.05;;
52872;Laerm;40124;52.198;9.902;2023-06-04T11:26:12;70.40;45.23;82.21;;
52872;Laerm;40124;52.198;9.902;2023-06-04T11:28:38;65.75;42.03;78.38;;
52872;Laerm;40124;52.198;9.902;2023-06-04T11:31:05;69.76;47.16;81.56;;
52872;Laerm;40124;52.198;9.902;2023-06-04T11:33:41;66.78;43.09;83.34;;
52872;Laerm;40124;52.198;9.902;2023-06-04T11:36:07;69.49;43.72;80.24;;
52872;Laerm;40124;52.198;9.902;2023-06-04T11:38:32;69.38;43.77;79.35;;
52872;Laerm;40124;52.198;9.902;2023-06-04T11:41:01;68.44;43.34;80.34;;
52872;Laerm;40124;52.198;9.902;2023-06-04T11:43:27;68.16;49.15;78.92;;
52872;Laerm;40124;52.198;9.902;2023-06-04T11:45:53;67.80;40.33;78.93;;
52872;Laerm;40124;52.198;9.902;2023-06-04T11:48:18;71.39;46.18;84.21;;
52872;Laerm;40124;52.198;9.902;2023-06-04T11:50:45;68.19;39.46;79.38;;
52872;Laerm;40124;52.198;9.902;2023-06-04T11:53:10;69.80;43.44;80.20;;
52872;Laerm;40124;52.198;9.902;2023-06-04T11:55:36;66.86;44.69;78.60;;
52872;Laerm;40124;52.198;9.902;2023-06-04T11:58:02;69.54;44.11;86.48;;
52872;Laerm;40124;52.198;9.902;2023-06-04T12:00:27;66.91;42.93;78.96;;
52872;Laerm;40124;52.198;9.902;2023-06-04T12:02:54;68.04;47.61;81.22;;
52872;Laerm;40124;52.198;9.902;2023-06-04T12:05:20;65.31;44.23;77.01;;
52872;Laerm;40124;52.198;9.902;2023-06-04T12:07:48;69.33;44.58;83.81;;
52872;Laerm;40124;52.198;9.902;2023-06-04T12:10:15;69.57;44.87;80.56;;
52872;Laerm;40124;52.198;9.902;2023-06-04T12:12:41;68.70;44.15;83.20;;
52872;Laerm;40124;52.198;9.902;2023-06-04T12:15:06;66.61;43.19;79.45;;
52872;Laerm;40124;52.198;9.902;2023-06-04T12:17:32;65.63;42.53;78.96;;
52872;Laerm;40124;52.198;9.902;2023-06-04T12:19:57;67.26;40.33;79.57;;
52872;Laerm;40124;52.198;9.902;2023-06-04T12:22:23;68.24;44.97;81.93;;
52872;Laerm;40124;52.198;9.902;2023-06-04T12:24:49;67.12;44.15;79.58;;
52872;Laerm;40124;52.198;9.902;2023-06-04T12:27:18;75.31;44.51;89.84;;
52872;Laerm;40124;52.198;9.902;2023-06-04T12:29:53;67.56;43.39;88.97;;
52872;Laerm;40124;52.198;9.902;2023-06-04T12:32:19;69.12;43.90;83.05;;
52872;Laerm;40124;52.198;9.902;2023-06-04T12:34:50;70.86;43.49;88.52;;
52872;Laerm;40124;52.198;9.902;2023-06-04T12:37:15;67.99;43.58;78.72;;
52872;Laerm;40124;52.198;9.902;2023-06-04T12:39:44;66.75;42.93;78.85;;
52872;Laerm;40124;52.198;9.902;2023-06-04T12:42:12;69.74;44.51;80.81;;
52872;Laerm;40124;52.198;9.902;2023-06-04T12:44:38;68.76;45.11;80.43;;
52872;Laerm;40124;52.198;9.902;2023-06-04T12:47:03;70.33;45.20;84.81;;
52872;Laerm;40124;52.198;9.902;2023-06-04T12:49:29;73.20;46.91;89.41;;
52872;Laerm;40124;52.198;9.902;2023-06-04T12:51:54;69.37;42.93;80.58;;
52872;Laerm;40124;52.198;9.902;2023-06-04T12:54:19;69.75;42.47;85.50;;
52872;Laerm;40124;52.198;9.902;2023-06-04T12:56:45;67.43;40.53;78.83;;
52872;Laerm;40124;52.198;9.902;2023-06-04T12:59:10;67.81;40.62;79.30;;
52872;Laerm;40124;52.198;9.902;2023-06-04T13:01:35;67.80;44.87;79.85;;
52872;Laerm;40124;52.198;9.902;2023-06-04T13:04:02;67.34;41.89;81.02;;
52872;Laerm;40124;52.198;9.902;2023-06-04T13:06:27;68.71;44.73;80.69;;
52872;Laerm;40124;52.198;9.902;2023-06-04T13:08:52;67.51;44.69;79.15;;
52872;Laerm;40124;52.198;9.902;2023-06-04T13:11:18;67.32;43.94;80.65;;
52872;Laerm;40124;52.198;9.902;2023-06-04T13:13:43;68.73;43.34;81.57;;
52872;Laerm;40124;52.198;9.902;2023-06-04T13:16:08;69.67;43.81;85.66;;
52872;Laerm;40124;52.198;9.902;2023-06-04T13:18:33;69.58;39.81;82.41;;
52872;Laerm;40124;52.198;9.902;2023-06-04T13:20:59;67.99;42.82;79.43;;
52872;Laerm;40124;52.198;9.902;2023-06-04T13:23:24;68.18;42.22;80.35;;
52872;Laerm;40124;52.198;9.902;2023-06-04T13:25:49;70.92;41.46;87.36;;
52872;Laerm;40124;52.198;9.902;2023-06-04T13:28:15;69.65;43.99;88.94;;
52872;Laerm;40124;52.198;9.902;2023-06-04T13:30:42;66.96;42.03;78.94;;
52872;Laerm;40124;52.198;9.902;2023-06-04T13:33:07;67.90;44.23;79.69;;
52872;Laerm;40124;52.198;9.902;2023-06-04T13:35:32;77.72;44.35;93.34;;
52872;Laerm;40124;52.198;9.902;2023-06-04T13:37:57;67.26;41.46;80.46;;
52872;Laerm;40124;52.198;9.902;2023-06-04T13:40:23;65.97;39.34;78.37;;